Time;durP1;ratioP1;P1;durP2;ratioP2;P2;SDS_P1;SDS_P2;PMS_P1;PMS_P2;Temp;Humidity;BMP_temperature;BMP_pressure;BME280_temperature;BME280_humidity;BME280_pressure;Samples;Min_cycle;Max_cycle;Signal;HPM_P1;HPM_P2
2022/11/22 00:00:58;;;;;;;5.13;3.37;;;;;;;;;;5050375;28;89008;-62
2022/11/22 00:03:26;;;;;;;6.87;3.83;;;;;;;;;;5051008;28;87060;-61
2022/11/22 00:05:55;;;;;;;6.87;3.90;;;;;;;;;;5049652;28;87146;-61
2022/11/22 00:08:23;;;;;;;6.33;3.60;;;;;;;;;;5047987;28;91470;-61
2022/11/22 00:10:51;;;;;;;7.03;4.57;;;;;;;;;;5048758;28;88600;-61
2022/11/22 00:13:20;;;;;;;7.23;4.27;;;;;;;;;;5049215;27;87767;-63
2022/11/22 00:15:59;;;;;;;7.40;4.80;;;;;;;;;;5048735;28;86965;-62
2022/11/22 00:18:27;;;;;;;9.73;4.57;;;;;;;;;;5047506;28;89174;-62
2022/11/22 00:20:55;;;;;;;5.07;3.13;;;;;;;;;;5046640;28;88937;-62
2022/11/22 00:23:23;;;;;;;7.00;4.23;;;;;;;;;;5048066;28;86926;-62
2022/11/22 00:25:52;;;;;;;8.00;4.33;;;;;;;;;;5047207;28;86166;-62
2022/11/22 00:28:20;;;;;;;6.77;4.13;;;;;;;;;;5046148;28;88714;-62
2022/11/22 00:30:48;;;;;;;6.80;4.07;;;;;;;;;;5044854;28;88536;-62
2022/11/22 00:33:18;;;;;;;7.97;4.23;;;;;;;;;;5045195;28;88518;-62
2022/11/22 00:35:46;;;;;;;9.27;4.97;;;;;;;;;;5043149;28;87160;-62
2022/11/22 00:38:15;;;;;;;6.20;4.17;;;;;;;;;;5046306;28;89252;-62
2022/11/22 00:40:43;;;;;;;6.07;4.33;;;;;;;;;;5044980;28;88315;-62
2022/11/22 00:43:11;;;;;;;6.30;4.60;;;;;;;;;;5042228;28;87072;-62
2022/11/22 00:45:41;;;;;;;7.53;3.77;;;;;;;;;;5041320;28;87076;-62
2022/11/22 00:48:09;;;;;;;5.67;3.83;;;;;;;;;;5040848;28;89289;-62
2022/11/22 00:50:39;;;;;;;9.30;4.10;;;;;;;;;;5040305;28;87567;-62
2022/11/22 00:53:07;;;;;;;6.63;3.77;;;;;;;;;;5041538;28;87115;-62
2022/11/22 00:55:35;;;;;;;6.33;4.27;;;;;;;;;;5040652;28;90180;-64
2022/11/22 00:58:04;;;;;;;7.87;4.27;;;;;;;;;;5039870;28;90010;-62
2022/11/22 01:00:32;;;;;;;7.80;5.03;;;;;;;;;;5040353;28;88603;-62
2022/11/22 01:03:00;;;;;;;17.23;9.37;;;;;;;;;;5055978;27;87192;-62
2022/11/22 01:05:29;;;;;;;14.33;8.07;;;;;;;;;;5044775;27;87190;-62
2022/11/22 01:07:58;;;;;;;12.13;5.97;;;;;;;;;;5040642;27;88864;-62
2022/11/22 01:10:27;;;;;;;11.40;6.13;;;;;;;;;;5040248;27;89009;-62
2022/11/22 01:12:55;;;;;;;8.80;6.07;;;;;;;;;;5039221;27;87047;-62
2022/11/22 01:15:23;;;;;;;10.73;6.50;;;;;;;;;;5038145;28;86354;-62
2022/11/22 01:17:52;;;;;;;9.73;6.30;;;;;;;;;;5040871;28;88888;-63
2022/11/22 01:20:20;;;;;;;8.90;5.67;;;;;;;;;;5039662;28;88969;-62
2022/11/22 01:22:48;;;;;;;7.67;5.53;;;;;;;;;;5039968;28;88010;-62
2022/11/22 01:25:18;;;;;;;6.67;5.03;;;;;;;;;;5039877;28;87002;-62
2022/11/22 01:27:46;;;;;;;8.20;5.73;;;;;;;;;;5039546;28;89289;-62
2022/11/22 01:30:15;;;;;;;7.33;4.83;;;;;;;;;;5031902;28;87717;-63
2022/11/22 01:32:43;;;;;;;8.97;5.83;;;;;;;;;;5040499;28;87035;-63
2022/11/22 01:35:12;;;;;;;7.80;4.70;;;;;;;;;;5039734;28;87053;-63
2022/11/22 01:37:40;;;;;;;10.97;5.77;;;;;;;;;;5039614;28;88530;-63
2022/11/22 01:40:10;;;;;;;10.87;5.80;;;;;;;;;;5039845;28;87678;-63
2022/11/22 01:42:46;;;;;;;8.20;4.43;;;;;;;;;;5039919;28;87544;-62
2022/11/22 01:45:33;;;;;;;5.40;4.07;;;;;;;;;;5030975;28;87066;-63
2022/11/22 01:48:02;;;;;;;6.50;4.73;;;;;;;;;;5038126;28;90098;-62
2022/11/22 01:50:30;;;;;;;9.50;4.70;;;;;;;;;;5038990;28;89852;-62
2022/11/22 01:52:59;;;;;;;5.83;4.20;;;;;;;;;;5039087;28;87214;-63
2022/11/22 01:55:27;;;;;;;6.07;4.37;;;;;;;;;;5039731;28;87000;-62
2022/11/22 01:57:57;;;;;;;6.57;4.00;;;;;;;;;;5059199;27;89108;-62
2022/11/22 02:00:25;;;;;;;5.17;3.50;;;;;;;;;;5046301;27;88965;-62
2022/11/22 02:02:55;;;;;;;5.03;3.47;;;;;;;;;;5060533;27;87899;-62
2022/11/22 02:05:23;;;;;;;7.07;3.90;;;;;;;;;;5061071;27;86258;-62
2022/11/22 02:07:53;;;;;;;5.77;3.73;;;;;;;;;;5060100;27;88847;-62
2022/11/22 02:10:21;;;;;;;4.63;3.80;;;;;;;;;;5063030;27;87584;-62
2022/11/22 02:12:49;;;;;;;4.63;2.77;;;;;;;;;;5043412;27;88025;-62
2022/11/22 02:15:19;;;;;;;3.97;3.00;;;;;;;;;;5071846;27;87135;-62
2022/11/22 02:17:47;;;;;;;4.60;2.60;;;;;;;;;;5064444;27;88100;-62
2022/11/22 02:20:16;;;;;;;3.67;2.90;;;;;;;;;;5063414;27;88804;-62
2022/11/22 02:22:45;;;;;;;7.33;3.40;;;;;;;;;;5064056;27;86990;-62
2022/11/22 02:25:16;;;;;;;3.57;2.70;;;;;;;;;;5070965;27;87107;-62
2022/11/22 02:27:45;;;;;;;4.47;2.67;;;;;;;;;;5067106;27;89081;-62
2022/11/22 02:30:14;;;;;;;5.10;3.00;;;;;;;;;;5081785;27;88959;-62
2022/11/22 02:32:42;;;;;;;6.93;2.97;;;;;;;;;;5076050;27;87081;-62
2022/11/22 02:35:16;;;;;;;4.80;2.63;;;;;;;;;;5064715;27;87213;-62
2022/11/22 02:37:44;;;;;;;5.00;3.37;;;;;;;;;;5062800;27;88822;-62
2022/11/22 02:40:14;;;;;;;4.43;2.77;;;;;;;;;;5075660;27;88712;-62
2022/11/22 02:42:42;;;;;;;4.30;2.63;;;;;;;;;;5067765;27;87598;-62
2022/11/22 02:45:12;;;;;;;4.50;2.60;;;;;;;;;;5077759;27;87145;-62
2022/11/22 02:47:40;;;;;;;4.07;2.43;;;;;;;;;;5074110;27;87894;-62
2022/11/22 02:50:09;;;;;;;4.50;2.47;;;;;;;;;;5082683;27;87668;-62
2022/11/22 02:52:38;;;;;;;5.33;2.40;;;;;;;;;;5083754;27;87036;-62
2022/11/22 02:55:06;;;;;;;5.40;2.07;;;;;;;;;;5082096;27;86267;-62
2022/11/22 02:57:34;;;;;;;3.27;1.77;;;;;;;;;;5071970;27;89262;-62
2022/11/22 03:00:03;;;;;;;4.20;2.10;;;;;;;;;;5052066;27;88993;-62
2022/11/22 03:02:32;;;;;;;2.30;2.10;;;;;;;;;;5056574;27;89084;-62
2022/11/22 03:05:01;;;;;;;3.73;2.20;;;;;;;;;;5062648;27;87370;-62
2022/11/22 03:07:29;;;;;;;3.40;2.33;;;;;;;;;;5072554;27;88919;-62
2022/11/22 03:09:58;;;;;;;2.37;2.00;;;;;;;;;;5065702;27;89075;-62
2022/11/22 03:12:26;;;;;;;2.57;2.00;;;;;;;;;;5062460;27;87097;-63
2022/11/22 03:14:54;;;;;;;2.47;2.20;;;;;;;;;;5063481;27;87098;-63
2022/11/22 03:17:23;;;;;;;3.00;2.00;;;;;;;;;;5077159;27;88912;-64
2022/11/22 03:19:52;;;;;;;3.07;1.80;;;;;;;;;;5082206;27;91161;-63
2022/11/22 03:22:21;;;;;;;6.17;1.83;;;;;;;;;;5083242;27;87110;-63
2022/11/22 03:24:49;;;;;;;2.00;1.77;;;;;;;;;;5083209;27;87078;-63
2022/11/22 03:27:18;;;;;;;4.60;1.90;;;;;;;;;;5071206;27;89790;-63
2022/11/22 03:29:46;;;;;;;2.77;1.67;;;;;;;;;;5083059;27;89755;-64
2022/11/22 03:32:14;;;;;;;2.70;1.57;;;;;;;;;;5066140;27;87091;-63
2022/11/22 03:34:42;;;;;;;2.93;1.83;;;;;;;;;;5082360;27;87013;-63
2022/11/22 03:37:12;;;;;;;2.30;1.47;;;;;;;;;;5082668;27;89102;-63
2022/11/22 03:39:40;;;;;;;2.23;1.73;;;;;;;;;;5070817;27;88937;-63
2022/11/22 03:42:09;;;;;;;1.70;1.53;;;;;;;;;;5058002;27;87070;-63
2022/11/22 03:44:37;;;;;;;2.83;1.63;;;;;;;;;;5062863;27;86239;-63
2022/11/22 03:47:05;;;;;;;1.90;1.60;;;;;;;;;;5066348;27;88099;-64
2022/11/22 03:49:34;;;;;;;2.40;1.67;;;;;;;;;;5062130;27;88557;-64
2022/11/22 03:52:02;;;;;;;2.77;1.97;;;;;;;;;;5062284;27;87984;-63
2022/11/22 03:54:32;;;;;;;1.50;1.40;;;;;;;;;;5062833;27;87133;-63
2022/11/22 03:57:00;;;;;;;2.50;1.40;;;;;;;;;;5061739;27;89067;-63
2022/11/22 03:59:28;;;;;;;2.77;1.63;;;;;;;;;;5078286;27;87430;-63
2022/11/22 04:01:57;;;;;;;1.83;1.57;;;;;;;;;;5063772;27;87023;-63
2022/11/22 04:04:25;;;;;;;2.07;1.50;;;;;;;;;;5066939;27;87061;-63
2022/11/22 04:06:54;;;;;;;1.70;1.07;;;;;;;;;;5081446;27;89065;-63
2022/11/22 04:09:22;;;;;;;3.30;1.30;;;;;;;;;;5073771;27;88915;-63
2022/11/22 04:11:52;;;;;;;1.70;1.60;;;;;;;;;;5064041;27;87074;-63
2022/11/22 04:17:06;;;;;;;1.80;1.27;;;;;;;;;;5062387;27;89815;-63
2022/11/22 04:19:34;;;;;;;1.30;1.20;;;;;;;;;;5067921;27;89886;-63
2022/11/22 04:22:01;;;;;;;2.10;1.20;;;;;;;;;;5081565;27;87078;-63
2022/11/22 04:27:17;;;;;;;2.20;1.37;;;;;;;;;;5061116;27;87801;-63
2022/11/22 04:29:45;;;;;;;1.87;1.47;;;;;;;;;;5061021;27;89012;-63
2022/11/22 04:35:00;;;;;;;2.53;0.97;;;;;;;;;;5061978;27;86172;-63
2022/11/22 04:37:28;;;;;;;2.50;1.10;;;;;;;;;;5060642;27;89098;-63
2022/11/22 04:39:56;;;;;;;1.90;1.07;;;;;;;;;;5066311;27;88893;-63
2022/11/22 04:45:11;;;;;;;1.93;1.07;;;;;;;;;;5082059;27;87101;-63
2022/11/22 04:53:12;;;;;;;3.13;1.43;;;;;;;;;;5061082;27;88584;-63
2022/11/22 04:55:40;;;;;;;2.07;1.27;;;;;;;;;;5060478;27;87092;-63
2022/11/22 04:58:10;;;;;;;1.53;1.40;;;;;;;;;;5063802;27;89211;-63
2022/11/22 05:00:38;;;;;;;2.53;0.90;;;;;;;;;;5080178;27;88720;-63
2022/11/22 05:03:07;;;;;;;0.67;0.67;;;;;;;;;;5047043;27;87066;-63
2022/11/22 05:05:35;;;;;;;1.07;0.77;;;;;;;;;;5059238;27;89119;-63
2022/11/22 05:08:04;;;;;;;1.53;1.03;;;;;;;;;;5062990;27;89997;-63
2022/11/22 05:10:55;;;;;;;1.90;1.00;;;;;;;;;;5062504;27;90010;-63
2022/11/22 05:13:22;;;;;;;0.50;0.50;;;;;;;;;;5056948;27;87445;-63
2022/11/22 05:15:51;;;;;;;1.73;1.10;;;;;;;;;;5071754;27;87563;-63
2022/11/22 05:18:19;;;;;;;0.57;0.57;;;;;;;;;;5070799;27;88110;-63
2022/11/22 05:20:47;;;;;;;0.70;0.70;;;;;;;;;;5060287;27;88724;-63
2022/11/22 05:26:02;;;;;;;1.10;0.70;;;;;;;;;;5079871;27;86167;-63
2022/11/22 05:28:32;;;;;;;1.20;0.70;;;;;;;;;;5080707;27;89141;-63
2022/11/22 05:31:00;;;;;;;1.53;1.10;;;;;;;;;;5081062;27;88922;-63
2022/11/22 05:33:28;;;;;;;0.63;0.63;;;;;;;;;;5065999;27;87916;-63
2022/11/22 05:35:59;;;;;;;3.27;0.90;;;;;;;;;;5075848;27;87038;-63
2022/11/22 05:38:27;;;;;;;1.03;0.97;;;;;;;;;;5060884;27;87094;-63
2022/11/22 05:40:55;;;;;;;0.90;0.67;;;;;;;;;;5060599;27;88952;-63
2022/11/22 05:43:23;;;;;;;0.97;0.80;;;;;;;;;;5069225;27;87029;-63
2022/11/22 05:45:53;;;;;;;1.37;0.83;;;;;;;;;;5073330;27;87199;-63
2022/11/22 05:48:21;;;;;;;2.30;0.60;;;;;;;;;;5067869;27;89126;-63
2022/11/22 05:50:50;;;;;;;1.50;0.70;;;;;;;;;;5064631;27;88907;-63
2022/11/22 05:53:18;;;;;;;2.50;0.90;;;;;;;;;;5064396;27;87107;-63
2022/11/22 05:55:46;;;;;;;1.90;0.77;;;;;;;;;;5063724;27;87249;-63
2022/11/22 05:58:15;;;;;;;1.13;0.60;;;;;;;;;;5075353;27;89015;-63
2022/11/22 06:00:43;;;;;;;1.90;0.80;;;;;;;;;;5081400;27;89853;-63
2022/11/22 06:03:13;;;;;;;0.73;0.37;;;;;;;;;;5083976;27;87270;-63
2022/11/22 06:05:41;;;;;;;1.20;0.70;;;;;;;;;;5073774;27;87097;-63
2022/11/22 06:08:10;;;;;;;1.97;1.37;;;;;;;;;;5071908;27;89433;-63
2022/11/22 06:10:39;;;;;;;2.40;0.97;;;;;;;;;;5077255;27;88816;-63
2022/11/22 06:13:07;;;;;;;0.67;0.67;;;;;;;;;;5080744;27;87030;-63
2022/11/22 06:15:35;;;;;;;1.67;1.00;;;;;;;;;;5068271;27;86369;-63
2022/11/22 06:18:04;;;;;;;0.40;0.40;;;;;;;;;;5069592;27;89267;-63
2022/11/22 06:20:33;;;;;;;1.10;1.00;;;;;;;;;;5084004;27;87831;-63
2022/11/22 06:23:02;;;;;;;0.67;0.67;;;;;;;;;;5083370;27;88105;-63
2022/11/22 06:25:32;;;;;;;1.97;0.60;;;;;;;;;;5083837;27;87018;-63
2022/11/22 06:28:00;;;;;;;0.60;0.60;;;;;;;;;;5080565;27;89247;-63
2022/11/22 06:30:29;;;;;;;1.03;0.60;;;;;;;;;;5077785;27;89013;-63
2022/11/22 06:32:57;;;;;;;0.50;0.50;;;;;;;;;;5082192;27;86961;-63
2022/11/22 06:35:26;;;;;;;0.87;0.60;;;;;;;;;;5063934;27;87088;-63
2022/11/22 06:37:56;;;;;;;0.70;0.70;;;;;;;;;;5063202;27;89178;-63
2022/11/22 06:40:28;;;;;;;0.47;0.47;;;;;;;;;;5067281;27;87821;-63
2022/11/22 06:42:56;;;;;;;0.60;0.43;;;;;;;;;;5083385;27;87052;-63
2022/11/22 06:45:24;;;;;;;1.13;0.93;;;;;;;;;;5073777;27;87025;-63
2022/11/22 06:47:53;;;;;;;1.53;0.53;;;;;;;;;;5065992;27;88831;-63
2022/11/22 06:50:21;;;;;;;0.77;0.73;;;;;;;;;;5062516;27;89724;-63
2022/11/22 06:52:51;;;;;;;0.57;0.50;;;;;;;;;;5070778;27;87160;-63
2022/11/22 06:55:21;;;;;;;1.27;0.80;;;;;;;;;;5062207;27;87068;-63
2022/11/22 06:58:09;;;;;;;0.50;0.50;;;;;;;;;;5067809;27;90410;-63
2022/11/22 07:00:38;;;;;;;0.70;0.53;;;;;;;;;;5083036;27;88917;-63
2022/11/22 07:03:06;;;;;;;0.97;0.80;;;;;;;;;;5078981;27;86951;-63
2022/11/22 07:05:34;;;;;;;0.50;0.50;;;;;;;;;;5063334;27;86350;-63
2022/11/22 07:08:02;;;;;;;0.73;0.50;;;;;;;;;;5066040;27;88597;-63
2022/11/22 07:10:41;;;;;;;1.30;0.80;;;;;;;;;;5063517;27;88845;-63
2022/11/22 07:13:10;;;;;;;2.27;1.03;;;;;;;;;;5082432;27;88021;-63
2022/11/22 07:15:38;;;;;;;1.43;0.70;;;;;;;;;;5074428;27;87240;-63
2022/11/22 07:18:07;;;;;;;2.10;0.90;;;;;;;;;;5080923;27;89201;-63
2022/11/22 07:20:35;;;;;;;1.20;0.60;;;;;;;;;;5067371;27;90233;-63
2022/11/22 07:23:03;;;;;;;1.50;0.80;;;;;;;;;;5050800;27;87154;-63
2022/11/22 07:25:32;;;;;;;2.20;1.10;;;;;;;;;;5077783;27;87015;-63
2022/11/22 07:28:01;;;;;;;1.33;0.90;;;;;;;;;;5069281;27;88682;-63
2022/11/22 07:30:29;;;;;;;2.53;0.83;;;;;;;;;;5069114;27;88905;-63
2022/11/22 07:32:58;;;;;;;0.87;0.80;;;;;;;;;;5078014;27;87158;-63
2022/11/22 07:35:26;;;;;;;1.13;0.70;;;;;;;;;;5071651;27;88929;-63
2022/11/22 07:37:54;;;;;;;0.63;0.57;;;;;;;;;;5072975;27;90129;-63
2022/11/22 07:40:23;;;;;;;1.20;0.67;;;;;;;;;;5082400;27;89923;-63
2022/11/22 07:42:51;;;;;;;0.60;0.60;;;;;;;;;;5072265;27;87062;-63
2022/11/22 07:45:27;;;;;;;0.50;0.50;;;;;;;;;;5064418;27;87256;-63
2022/11/22 07:47:55;;;;;;;1.50;0.70;;;;;;;;;;5062349;27;89137;-63
2022/11/22 07:50:23;;;;;;;0.87;0.70;;;;;;;;;;5061292;27;88844;-63
2022/11/22 07:52:55;;;;;;;0.50;0.50;;;;;;;;;;5061433;27;87058;-63
2022/11/22 07:55:24;;;;;;;1.00;0.50;;;;;;;;;;5062848;27;86366;-62
2022/11/22 07:57:52;;;;;;;0.60;0.60;;;;;;;;;;5061175;27;87849;-63
2022/11/22 08:00:21;;;;;;;0.60;0.60;;;;;;;;;;5060729;27;88905;-63
2022/11/22 08:02:50;;;;;;;0.70;0.70;;;;;;;;;;5060798;27;87989;-63
2022/11/22 08:05:19;;;;;;;1.40;0.93;;;;;;;;;;5061787;27;87140;-66
2022/11/22 08:07:47;;;;;;;0.90;0.87;;;;;;;;;;5061254;27;89018;-63
2022/11/22 08:10:16;;;;;;;2.03;0.60;;;;;;;;;;5061731;27;88794;-62
2022/11/22 08:12:44;;;;;;;0.50;0.50;;;;;;;;;;5060540;27;87076;-63
2022/11/22 08:15:13;;;;;;;0.97;0.33;;;;;;;;;;5061202;27;87992;-63
2022/11/22 08:17:41;;;;;;;1.00;0.73;;;;;;;;;;5060592;27;89346;-63
2022/11/22 08:20:12;;;;;;;0.80;0.40;;;;;;;;;;5061438;27;87764;-63
2022/11/22 08:22:40;;;;;;;3.80;0.63;;;;;;;;;;5062047;27;87100;-63
2022/11/22 08:25:12;;;;;;;0.47;0.47;;;;;;;;;;5061689;27;87053;-63
2022/11/22 08:27:40;;;;;;;0.73;0.40;;;;;;;;;;5060534;27;88999;-63
2022/11/22 08:30:09;;;;;;;2.10;0.70;;;;;;;;;;5062085;27;89586;-63
2022/11/22 08:32:37;;;;;;;1.17;0.67;;;;;;;;;;5061943;27;87195;-63
2022/11/22 08:35:06;;;;;;;0.37;0.37;;;;;;;;;;5061959;27;87057;-63
2022/11/22 08:37:36;;;;;;;1.23;0.50;;;;;;;;;;5061387;27;89073;-63
2022/11/22 08:40:05;;;;;;;2.00;0.87;;;;;;;;;;5061512;27;88937;-63
2022/11/22 08:42:33;;;;;;;0.43;0.43;;;;;;;;;;5061652;27;87108;-62
2022/11/22 08:45:01;;;;;;;4.10;0.57;;;;;;;;;;5061671;27;86324;-63
2022/11/22 08:47:30;;;;;;;0.50;0.50;;;;;;;;;;5060876;27;88215;-63
2022/11/22 08:49:58;;;;;;;0.60;0.60;;;;;;;;;;5060844;27;87801;-63
2022/11/22 08:52:27;;;;;;;0.40;0.40;;;;;;;;;;5061036;27;87969;-63
2022/11/22 08:54:56;;;;;;;0.80;0.60;;;;;;;;;;5061665;27;86940;-63
2022/11/22 08:57:24;;;;;;;1.50;0.40;;;;;;;;;;5060805;27;89087;-63
2022/11/22 08:59:53;;;;;;;1.57;0.77;;;;;;;;;;5061046;27;88857;-63
2022/11/22 09:02:21;;;;;;;1.03;0.60;;;;;;;;;;5061429;27;87337;-63
2022/11/22 09:04:50;;;;;;;1.37;0.40;;;;;;;;;;5061057;27;87110;-63
2022/11/22 09:07:18;;;;;;;0.73;0.30;;;;;;;;;;5060899;27;89226;-63
2022/11/22 09:10:08;;;;;;;0.70;0.40;;;;;;;;;;5061372;27;88610;-63
2022/11/22 09:12:37;;;;;;;0.50;0.30;;;;;;;;;;5060816;27;87159;-63
2022/11/22 09:15:06;;;;;;;0.30;0.30;;;;;;;;;;5060935;27;87095;-63
2022/11/22 09:17:34;;;;;;;0.87;0.40;;;;;;;;;;5060468;27;88707;-63
2022/11/22 09:20:03;;;;;;;2.20;0.50;;;;;;;;;;5064476;27;88660;-63
2022/11/22 09:22:31;;;;;;;0.93;0.70;;;;;;;;;;5064562;27;87067;-63
2022/11/22 09:25:00;;;;;;;1.30;0.40;;;;;;;;;;5064711;27;86983;-63
2022/11/22 09:27:29;;;;;;;0.77;0.67;;;;;;;;;;5064272;27;89170;-64
2022/11/22 09:29:58;;;;;;;0.57;0.53;;;;;;;;;;5064323;27;88517;-64
2022/11/22 09:32:26;;;;;;;1.00;0.60;;;;;;;;;;5064551;27;87038;-64
2022/11/22 09:35:00;;;;;;;0.30;0.30;;;;;;;;;;5065083;27;86364;-64
2022/11/22 09:37:29;;;;;;;0.30;0.30;;;;;;;;;;5064399;27;90596;-63
2022/11/22 09:39:57;;;;;;;1.27;0.83;;;;;;;;;;5064829;27;88982;-63
2022/11/22 09:42:43;;;;;;;0.80;0.40;;;;;;;;;;5064425;27;87961;-64
2022/11/22 09:45:17;;;;;;;0.67;0.40;;;;;;;;;;5065715;27;87077;-64
2022/11/22 09:47:47;;;;;;;3.47;0.40;;;;;;;;;;5064661;27;87897;-63
2022/11/22 09:50:18;;;;;;;0.60;0.50;;;;;;;;;;5064085;27;89177;-62
2022/11/22 09:52:47;;;;;;;0.87;0.47;;;;;;;;;;5065115;27;86970;-62
2022/11/22 09:55:16;;;;;;;0.57;0.30;;;;;;;;;;5064820;27;87022;-64
2022/11/22 09:57:53;;;;;;;0.30;0.30;;;;;;;;;;5064253;27;89067;-63
2022/11/22 10:00:24;;;;;;;0.67;0.67;;;;;;;;;;5064140;27;91879;-61
2022/11/22 10:02:53;;;;;;;0.97;0.40;;;;;;;;;;5064478;27;87063;-62
2022/11/22 10:05:29;;;;;;;0.53;0.53;;;;;;;;;;5064290;27;86992;-62
2022/11/22 10:07:58;;;;;;;0.50;0.50;;;;;;;;;;5064162;27;90303;-62
2022/11/22 10:10:27;;;;;;;0.40;0.37;;;;;;;;;;5064503;27;89722;-62
2022/11/22 10:12:57;;;;;;;0.50;0.43;;;;;;;;;;5064499;27;87036;-62
2022/11/22 10:15:28;;;;;;;0.40;0.30;;;;;;;;;;5064274;27;86982;-62
2022/11/22 10:17:56;;;;;;;0.40;0.27;;;;;;;;;;5063988;27;89107;-62
2022/11/22 10:20:25;;;;;;;0.30;0.30;;;;;;;;;;5063993;27;88976;-62
2022/11/22 10:22:54;;;;;;;1.43;0.40;;;;;;;;;;5064567;27;87066;-62
2022/11/22 10:25:22;;;;;;;1.50;0.67;;;;;;;;;;5064389;27;86341;-62
2022/11/22 10:27:55;;;;;;;0.43;0.43;;;;;;;;;;5064132;27;87897;-62
2022/11/22 10:30:30;;;;;;;0.10;0.10;;;;;;;;;;5062785;27;87754;-62
2022/11/22 10:33:00;;;;;;;0.20;0.20;;;;;;;;;;5064627;27;88670;-62
2022/11/22 10:35:31;;;;;;;0.50;0.50;;;;;;;;;;5063549;27;87050;-63
2022/11/22 10:38:02;;;;;;;0.77;0.40;;;;;;;;;;5063983;27;88211;-64
2022/11/22 10:40:32;;;;;;;0.43;0.40;;;;;;;;;;5064226;27;88968;-64
2022/11/22 10:43:04;;;;;;;0.63;0.30;;;;;;;;;;5063956;27;86939;-64
2022/11/22 10:45:35;;;;;;;1.50;0.50;;;;;;;;;;5064390;27;87040;-64
2022/11/22 10:48:06;;;;;;;0.20;0.20;;;;;;;;;;5063586;27;89370;-64
2022/11/22 10:50:37;;;;;;;0.47;0.40;;;;;;;;;;5063663;27;88721;-64
2022/11/22 10:53:07;;;;;;;0.53;0.27;;;;;;;;;;5064039;27;87218;-64
2022/11/22 10:55:40;;;;;;;0.50;0.50;;;;;;;;;;5063400;27;86902;-64
2022/11/22 10:58:09;;;;;;;0.30;0.30;;;;;;;;;;5063093;27;89879;-64
2022/11/22 11:00:40;;;;;;;0.40;0.30;;;;;;;;;;5063223;27;88490;-64
2022/11/22 11:03:17;;;;;;;0.20;0.20;;;;;;;;;;5063486;27;86926;-64
2022/11/22 11:05:46;;;;;;;0.40;0.40;;;;;;;;;;5063470;27;86937;-64
2022/11/22 11:08:36;;;;;;;0.70;0.67;;;;;;;;;;5062586;27;87759;-62
2022/11/22 11:11:25;;;;;;;4.90;0.50;;;;;;;;;;5063433;27;90571;-62
2022/11/22 11:13:54;;;;;;;0.40;0.40;;;;;;;;;;5050089;27;87253;-62
2022/11/22 11:16:24;;;;;;;0.43;0.37;;;;;;;;;;5043422;28;86216;-63
2022/11/22 11:18:55;;;;;;;0.40;0.40;;;;;;;;;;5042437;28;89239;-63
2022/11/22 11:21:24;;;;;;;0.20;0.20;;;;;;;;;;5042394;28;88870;-63
2022/11/22 11:23:52;;;;;;;0.90;0.50;;;;;;;;;;5042877;28;87853;-63
2022/11/22 11:26:22;;;;;;;0.60;0.40;;;;;;;;;;5043259;28;86965;-63
2022/11/22 11:28:50;;;;;;;0.40;0.40;;;;;;;;;;5042675;28;90509;-63
2022/11/22 11:31:20;;;;;;;0.73;0.73;;;;;;;;;;5042190;28;87847;-63
2022/11/22 11:33:50;;;;;;;1.03;0.40;;;;;;;;;;5042516;28;87046;-62
2022/11/22 11:36:19;;;;;;;0.30;0.30;;;;;;;;;;5042617;28;87059;-62
2022/11/22 11:38:51;;;;;;;0.40;0.40;;;;;;;;;;5042318;28;89089;-62
2022/11/22 11:41:24;;;;;;;0.20;0.20;;;;;;;;;;5041945;27;87809;-62
2022/11/22 11:43:53;;;;;;;3.00;0.60;;;;;;;;;;5042365;28;87066;-62
2022/11/22 11:46:21;;;;;;;2.80;0.63;;;;;;;;;;5042263;28;87052;-62
2022/11/22 11:48:51;;;;;;;0.40;0.40;;;;;;;;;;5041313;28;90051;-62
2022/11/22 11:51:22;;;;;;;0.30;0.30;;;;;;;;;;5041228;28;89867;-63
2022/11/22 11:53:51;;;;;;;0.23;0.23;;;;;;;;;;5041784;28;87093;-63
2022/11/22 11:56:21;;;;;;;0.40;0.40;;;;;;;;;;5041989;28;87074;-62
2022/11/22 11:58:52;;;;;;;0.30;0.30;;;;;;;;;;5041274;28;89021;-62
2022/11/22 12:01:21;;;;;;;1.60;0.43;;;;;;;;;;5041675;28;88942;-62
2022/11/22 12:03:57;;;;;;;0.30;0.30;;;;;;;;;;5042497;28;86986;-62
2022/11/22 12:06:28;;;;;;;0.57;0.57;;;;;;;;;;5042573;28;86181;-63
2022/11/22 12:08:56;;;;;;;0.30;0.30;;;;;;;;;;5042138;28;89320;-63
2022/11/22 12:11:27;;;;;;;0.50;0.43;;;;;;;;;;5041720;28;89012;-63
2022/11/22 12:13:56;;;;;;;0.23;0.23;;;;;;;;;;5040907;27;87989;-63
2022/11/22 12:16:45;;;;;;;0.27;0.27;;;;;;;;;;5041462;28;87163;-62
2022/11/22 12:19:18;;;;;;;0.40;0.40;;;;;;;;;;5041402;28;88502;-62
2022/11/22 12:21:54;;;;;;;1.07;0.53;;;;;;;;;;5041635;28;87855;-62
2022/11/22 12:24:23;;;;;;;0.40;0.40;;;;;;;;;;5041670;28;87066;-62
2022/11/22 12:27:11;;;;;;;0.30;0.30;;;;;;;;;;5041298;28;87038;-62
2022/11/22 12:29:40;;;;;;;0.50;0.30;;;;;;;;;;5041813;28;89023;-63
2022/11/22 12:32:12;;;;;;;1.70;0.60;;;;;;;;;;5042017;28;88819;-63
2022/11/22 12:34:44;;;;;;;0.40;0.30;;;;;;;;;;5041430;28;87051;-63
2022/11/22 12:37:13;;;;;;;2.20;0.50;;;;;;;;;;5041771;28;87048;-63
2022/11/22 12:39:41;;;;;;;1.00;0.40;;;;;;;;;;5040642;28;91970;-63
2022/11/22 12:42:11;;;;;;;0.20;0.20;;;;;;;;;;5041141;28;87606;-62
2022/11/22 12:44:40;;;;;;;1.53;0.53;;;;;;;;;;5041737;28;87020;-62
2022/11/22 12:47:11;;;;;;;0.40;0.40;;;;;;;;;;5041905;28;87037;-63
2022/11/22 12:49:42;;;;;;;0.40;0.40;;;;;;;;;;5041503;28;89110;-62
2022/11/22 12:52:13;;;;;;;0.30;0.30;;;;;;;;;;5041611;28;88796;-62
2022/11/22 12:54:43;;;;;;;0.40;0.40;;;;;;;;;;5041352;28;86914;-64
2022/11/22 12:57:12;;;;;;;0.47;0.47;;;;;;;;;;5042485;28;86263;-64
2022/11/22 12:59:42;;;;;;;3.13;0.50;;;;;;;;;;5041591;28;88481;-64
2022/11/22 13:02:12;;;;;;;0.50;0.40;;;;;;;;;;5041135;28;87768;-64
2022/11/22 13:04:44;;;;;;;0.23;0.20;;;;;;;;;;5040230;28;88517;-64
2022/11/22 13:07:15;;;;;;;0.40;0.40;;;;;;;;;;5041839;28;87252;-64
2022/11/22 13:09:45;;;;;;;2.43;0.60;;;;;;;;;;5041511;28;91079;-64
2022/11/22 13:12:14;;;;;;;0.30;0.30;;;;;;;;;;5041464;28;89724;-64
2022/11/22 13:14:43;;;;;;;1.03;0.67;;;;;;;;;;5040809;27;87048;-64
2022/11/22 13:17:13;;;;;;;1.70;0.40;;;;;;;;;;5041278;28;87053;-64
2022/11/22 13:19:42;;;;;;;0.40;0.40;;;;;;;;;;5040793;28;88073;-64
2022/11/22 13:22:16;;;;;;;0.30;0.30;;;;;;;;;;5041058;28;88982;-64
2022/11/22 13:24:48;;;;;;;1.00;0.50;;;;;;;;;;5040829;28;87031;-64
2022/11/22 13:27:18;;;;;;;0.83;0.53;;;;;;;;;;5040437;28;86880;-64
2022/11/22 13:29:47;;;;;;;0.20;0.20;;;;;;;;;;5039945;28;88708;-64
2022/11/22 13:32:21;;;;;;;0.40;0.40;;;;;;;;;;5041071;28;88447;-64
2022/11/22 13:35:00;;;;;;;0.70;0.50;;;;;;;;;;5041343;28;87023;-64
2022/11/22 13:37:30;;;;;;;0.30;0.30;;;;;;;;;;5041659;28;86995;-64
2022/11/22 13:39:58;;;;;;;0.30;0.30;;;;;;;;;;5041028;28;89314;-64
2022/11/22 13:42:27;;;;;;;0.40;0.30;;;;;;;;;;5041185;28;88862;-62
2022/11/22 13:45:09;;;;;;;0.33;0.33;;;;;;;;;;5041734;28;87104;-64
2022/11/22 13:47:41;;;;;;;0.53;0.40;;;;;;;;;;5041573;28;86305;-64
2022/11/22 13:50:36;;;;;;;0.67;0.67;;;;;;;;;;5040725;28;89382;-62
2022/11/22 13:53:17;;;;;;;0.20;0.20;;;;;;;;;;4982183;28;88829;-62
2022/11/22 13:55:46;;;;;;;1.20;0.40;;;;;;;;;;5040147;28;88663;-64
2022/11/22 13:58:38;;;;;;;0.40;0.40;;;;;;;;;;5041232;28;87188;-63
2022/11/22 14:01:09;;;;;;;0.50;0.37;;;;;;;;;;5040606;28;88124;-62
2022/11/22 14:03:38;;;;;;;0.70;0.60;;;;;;;;;;5041164;28;88049;-63
2022/11/22 14:06:29;;;;;;;0.30;0.30;;;;;;;;;;5044678;28;87407;-62
2022/11/22 14:09:17;;;;;;;0.30;0.30;;;;;;;;;;5046587;28;87063;-62
2022/11/22 14:11:48;;;;;;;0.70;0.50;;;;;;;;;;5046736;28;88962;-62
2022/11/22 14:14:17;;;;;;;0.23;0.23;;;;;;;;;;5045948;27;88882;-62
2022/11/22 14:16:49;;;;;;;0.20;0.20;;;;;;;;;;5046970;28;87001;-62
2022/11/22 14:19:27;;;;;;;0.60;0.60;;;;;;;;;;5045719;28;86967;-64
2022/11/22 14:22:00;;;;;;;0.97;0.60;;;;;;;;;;5046883;28;88934;-62
2022/11/22 14:24:43;;;;;;;0.33;0.33;;;;;;;;;;5046130;28;89788;-64
2022/11/22 14:27:13;;;;;;;0.30;0.30;;;;;;;;;;5048897;28;87184;-64
2022/11/22 14:29:49;;;;;;;0.27;0.27;;;;;;;;;;5048349;28;86960;-64
2022/11/22 14:32:21;;;;;;;0.90;0.40;;;;;;;;;;5048009;28;89128;-62
2022/11/22 14:35:07;;;;;;;0.50;0.50;;;;;;;;;;5048120;28;87432;-64
2022/11/22 14:37:36;;;;;;;0.40;0.40;;;;;;;;;;5048718;28;87132;-64
2022/11/22 14:40:15;;;;;;;0.30;0.30;;;;;;;;;;5048322;28;86252;-64
2022/11/22 14:43:01;;;;;;;0.83;0.50;;;;;;;;;;5046455;28;89256;-62
2022/11/22 14:45:32;;;;;;;0.30;0.30;;;;;;;;;;5047480;28;87480;-63
2022/11/22 14:48:04;;;;;;;0.40;0.40;;;;;;;;;;5047929;28;87995;-64
2022/11/22 14:50:33;;;;;;;0.60;0.20;;;;;;;;;;5047802;28;87175;-61
2022/11/22 14:53:05;;;;;;;0.47;0.47;;;;;;;;;;5047760;28;89282;-64
2022/11/22 14:55:34;;;;;;;0.63;0.30;;;;;;;;;;5046974;28;88975;-62
2022/11/22 14:58:03;;;;;;;0.40;0.37;;;;;;;;;;5047514;28;87516;-62
2022/11/22 15:00:36;;;;;;;0.63;0.50;;;;;;;;;;5047924;28;87010;-62
2022/11/22 15:03:12;;;;;;;0.90;0.60;;;;;;;;;;5047664;28;89203;-63
2022/11/22 15:05:47;;;;;;;0.40;0.37;;;;;;;;;;5047380;28;88135;-63
2022/11/22 15:08:38;;;;;;;0.60;0.40;;;;;;;;;;5046957;28;87364;-62
2022/11/22 15:11:47;;;;;;;0.50;0.50;;;;;;;;;;5045016;28;86972;-64
2022/11/22 15:14:22;;;;;;;0.50;0.50;;;;;;;;;;5041853;27;93173;-64
2022/11/22 15:16:51;;;;;;;0.43;0.40;;;;;;;;;;5041369;27;89494;-63
2022/11/22 15:19:40;;;;;;;0.70;0.40;;;;;;;;;;5042562;28;87068;-64
2022/11/22 15:22:29;;;;;;;1.20;0.40;;;;;;;;;;5042030;28;87017;-63